sensor_id;sensor_type;location;lat;lon;timestamp;P1;durP1;ratioP1;P2;durP2;ratioP2
23300;SDS011;11819;51.394;12.340;2022-09-09T00:00:15;9.05;;;3.65;;
23300;SDS011;11819;51.394;12.340;2022-09-09T00:02:47;5.88;;;3.65;;
23300;SDS011;11819;51.394;12.340;2022-09-09T00:11:47;7.82;;;3.40;;
23300;SDS011;11819;51.394;12.340;2022-09-09T00:16:55;8.00;;;3.58;;
23300;SDS011;11819;51.394;12.340;2022-09-09T00:19:30;4.80;;;3.15;;
23300;SDS011;11819;51.394;12.340;2022-09-09T00:22:13;9.98;;;3.50;;
23300;SDS011;11819;51.394;12.340;2022-09-09T00:24:43;8.40;;;3.75;;
23300;SDS011;11819;51.394;12.340;2022-09-09T00:30:14;7.28;;;4.20;;
23300;SDS011;11819;51.394;12.340;2022-09-09T00:33:33;8.20;;;4.10;;
23300;SDS011;11819;51.394;12.340;2022-09-09T00:35:41;7.57;;;3.53;;
23300;SDS011;11819;51.394;12.340;2022-09-09T00:38:16;6.85;;;3.30;;
23300;SDS011;11819;51.394;12.340;2022-09-09T00:40:50;6.15;;;3.15;;
23300;SDS011;11819;51.394;12.340;2022-09-09T00:43:21;4.88;;;3.00;;
23300;SDS011;11819;51.394;12.340;2022-09-09T00:52:18;7.00;;;2.97;;
23300;SDS011;11819;51.394;12.340;2022-09-09T00:57:34;5.68;;;3.40;;
23300;SDS011;11819;51.394;12.340;2022-09-09T01:05:49;6.97;;;3.60;;
23300;SDS011;11819;51.394;12.340;2022-09-09T01:11:20;9.45;;;3.90;;
23300;SDS011;11819;51.394;12.340;2022-09-09T01:13:47;7.50;;;3.22;;
23300;SDS011;11819;51.394;12.340;2022-09-09T01:16:25;7.45;;;3.53;;
23300;SDS011;11819;51.394;12.340;2022-09-09T01:18:53;5.97;;;3.53;;
23300;SDS011;11819;51.394;12.340;2022-09-09T01:21:39;6.30;;;3.65;;
23300;SDS011;11819;51.394;12.340;2022-09-09T01:24:24;6.53;;;3.42;;
23300;SDS011;11819;51.394;12.340;2022-09-09T01:27:16;5.50;;;3.47;;
23300;SDS011;11819;51.394;12.340;2022-09-09T01:29:45;6.05;;;3.28;;
23300;SDS011;11819;51.394;12.340;2022-09-09T01:37:54;5.78;;;3.35;;
23300;SDS011;11819;51.394;12.340;2022-09-09T01:40:19;7.00;;;3.60;;
23300;SDS011;11819;51.394;12.340;2022-09-09T01:42:47;5.90;;;3.58;;
23300;SDS011;11819;51.394;12.340;2022-09-09T01:45:13;5.80;;;3.35;;
23300;SDS011;11819;51.394;12.340;2022-09-09T01:47:39;5.43;;;3.53;;
23300;SDS011;11819;51.394;12.340;2022-09-09T01:50:19;5.38;;;3.50;;
23300;SDS011;11819;51.394;12.340;2022-09-09T01:52:46;7.88;;;3.60;;
23300;SDS011;11819;51.394;12.340;2022-09-09T01:55:19;5.35;;;3.42;;
23300;SDS011;11819;51.394;12.340;2022-09-09T01:58:02;7.07;;;3.63;;
23300;SDS011;11819;51.394;12.340;2022-09-09T02:00:32;4.90;;;3.25;;
23300;SDS011;11819;51.394;12.340;2022-09-09T02:03:05;7.43;;;3.70;;
23300;SDS011;11819;51.394;12.340;2022-09-09T02:11:16;6.68;;;3.25;;
23300;SDS011;11819;51.394;12.340;2022-09-09T02:16:45;5.80;;;3.95;;
23300;SDS011;11819;51.394;12.340;2022-09-09T02:19:18;8.95;;;3.58;;
23300;SDS011;11819;51.394;12.340;2022-09-09T02:21:59;9.68;;;4.13;;
23300;SDS011;11819;51.394;12.340;2022-09-09T02:24:26;10.05;;;4.07;;
23300;SDS011;11819;51.394;12.340;2022-09-09T02:27:10;6.38;;;3.53;;
23300;SDS011;11819;51.394;12.340;2022-09-09T02:29:38;7.10;;;3.70;;
23300;SDS011;11819;51.394;12.340;2022-09-09T02:32:08;7.03;;;3.90;;
23300;SDS011;11819;51.394;12.340;2022-09-09T02:34:51;9.02;;;4.00;;
23300;SDS011;11819;51.394;12.340;2022-09-09T02:37:22;5.90;;;3.80;;
23300;SDS011;11819;51.394;12.340;2022-09-09T02:39:54;5.97;;;3.90;;
23300;SDS011;11819;51.394;12.340;2022-09-09T02:42:21;6.50;;;3.63;;
23300;SDS011;11819;51.394;12.340;2022-09-09T02:44:48;5.28;;;3.83;;
23300;SDS011;11819;51.394;12.340;2022-09-09T02:47:33;8.20;;;3.90;;
23300;SDS011;11819;51.394;12.340;2022-09-09T02:50:12;7.15;;;4.00;;
23300;SDS011;11819;51.394;12.340;2022-09-09T02:52:59;7.93;;;3.45;;
23300;SDS011;11819;51.394;12.340;2022-09-09T02:55:38;5.82;;;3.28;;
23300;SDS011;11819;51.394;12.340;2022-09-09T02:58:22;8.25;;;3.50;;
23300;SDS011;11819;51.394;12.340;2022-09-09T03:00:56;5.53;;;3.35;;
23300;SDS011;11819;51.394;12.340;2022-09-09T03:03:23;5.78;;;3.70;;
23300;SDS011;11819;51.394;12.340;2022-09-09T03:05:51;13.90;;;3.78;;
23300;SDS011;11819;51.394;12.340;2022-09-09T03:08:17;7.43;;;4.93;;
23300;SDS011;11819;51.394;12.340;2022-09-09T03:10:43;5.50;;;3.10;;
23300;SDS011;11819;51.394;12.340;2022-09-09T03:13:12;6.53;;;4.63;;
23300;SDS011;11819;51.394;12.340;2022-09-09T03:15:40;5.00;;;3.40;;
23300;SDS011;11819;51.394;12.340;2022-09-09T03:18:10;8.77;;;3.65;;
23300;SDS011;11819;51.394;12.340;2022-09-09T03:20:35;6.00;;;3.15;;
23300;SDS011;11819;51.394;12.340;2022-09-09T03:23:01;6.05;;;3.65;;
23300;SDS011;11819;51.394;12.340;2022-09-09T03:25:27;6.18;;;3.75;;
23300;SDS011;11819;51.394;12.340;2022-09-09T03:27:54;7.60;;;3.90;;
23300;SDS011;11819;51.394;12.340;2022-09-09T03:30:21;7.60;;;4.15;;
23300;SDS011;11819;51.394;12.340;2022-09-09T03:32:48;5.20;;;3.20;;
23300;SDS011;11819;51.394;12.340;2022-09-09T03:35:16;4.35;;;3.05;;
23300;SDS011;11819;51.394;12.340;2022-09-09T03:37:42;7.50;;;3.90;;
23300;SDS011;11819;51.394;12.340;2022-09-09T03:40:10;5.53;;;3.65;;
23300;SDS011;11819;51.394;12.340;2022-09-09T03:42:36;5.30;;;3.10;;
23300;SDS011;11819;51.394;12.340;2022-09-09T03:45:05;6.72;;;3.38;;
23300;SDS011;11819;51.394;12.340;2022-09-09T03:47:35;5.78;;;3.13;;
23300;SDS011;11819;51.394;12.340;2022-09-09T03:50:05;7.78;;;3.92;;
23300;SDS011;11819;51.394;12.340;2022-09-09T03:52:34;6.38;;;3.22;;
23300;SDS011;11819;51.394;12.340;2022-09-09T03:55:02;10.10;;;4.82;;
23300;SDS011;11819;51.394;12.340;2022-09-09T03:57:28;7.47;;;3.33;;
23300;SDS011;11819;51.394;12.340;2022-09-09T03:59:55;6.30;;;3.67;;
23300;SDS011;11819;51.394;12.340;2022-09-09T04:02:20;7.75;;;3.75;;
23300;SDS011;11819;51.394;12.340;2022-09-09T04:04:46;5.60;;;3.67;;
23300;SDS011;11819;51.394;12.340;2022-09-09T04:07:12;8.85;;;3.47;;
23300;SDS011;11819;51.394;12.340;2022-09-09T04:09:39;8.52;;;3.60;;
23300;SDS011;11819;51.394;12.340;2022-09-09T04:12:04;7.95;;;3.13;;
23300;SDS011;11819;51.394;12.340;2022-09-09T04:14:33;6.20;;;3.13;;
23300;SDS011;11819;51.394;12.340;2022-09-09T04:16:58;6.35;;;3.45;;
23300;SDS011;11819;51.394;12.340;2022-09-09T04:19:25;5.90;;;3.38;;
23300;SDS011;11819;51.394;12.340;2022-09-09T04:21:51;6.25;;;3.25;;
23300;SDS011;11819;51.394;12.340;2022-09-09T04:24:18;7.15;;;3.10;;
23300;SDS011;11819;51.394;12.340;2022-09-09T04:26:44;6.68;;;3.28;;
23300;SDS011;11819;51.394;12.340;2022-09-09T04:29:10;7.70;;;3.17;;
23300;SDS011;11819;51.394;12.340;2022-09-09T04:31:37;5.03;;;2.83;;
23300;SDS011;11819;51.394;12.340;2022-09-09T04:34:07;7.07;;;3.00;;
23300;SDS011;11819;51.394;12.340;2022-09-09T04:36:36;4.93;;;3.28;;
23300;SDS011;11819;51.394;12.340;2022-09-09T04:39:04;5.40;;;3.22;;
23300;SDS011;11819;51.394;12.340;2022-09-09T04:41:31;5.55;;;3.42;;
23300;SDS011;11819;51.394;12.340;2022-09-09T04:43:57;5.47;;;3.00;;
23300;SDS011;11819;51.394;12.340;2022-09-09T04:46:23;8.43;;;3.05;;
23300;SDS011;11819;51.394;12.340;2022-09-09T04:48:50;5.78;;;3.20;;
23300;SDS011;11819;51.394;12.340;2022-09-09T04:51:17;9.75;;;3.20;;
23300;SDS011;11819;51.394;12.340;2022-09-09T04:53:46;6.28;;;3.15;;
23300;SDS011;11819;51.394;12.340;2022-09-09T04:56:13;5.72;;;3.35;;
23300;SDS011;11819;51.394;12.340;2022-09-09T04:58:46;6.63;;;3.47;;
23300;SDS011;11819;51.394;12.340;2022-09-09T05:01:13;5.93;;;3.33;;
23300;SDS011;11819;51.394;12.340;2022-09-09T05:03:43;5.47;;;3.42;;
23300;SDS011;11819;51.394;12.340;2022-09-09T05:06:17;6.40;;;3.22;;
23300;SDS011;11819;51.394;12.340;2022-09-09T05:08:46;5.60;;;3.40;;
23300;SDS011;11819;51.394;12.340;2022-09-09T05:11:19;6.32;;;3.08;;
23300;SDS011;11819;51.394;12.340;2022-09-09T05:13:49;5.07;;;3.30;;
23300;SDS011;11819;51.394;12.340;2022-09-09T05:16:16;6.50;;;3.38;;
23300;SDS011;11819;51.394;12.340;2022-09-09T05:18:43;4.70;;;3.08;;
23300;SDS011;11819;51.394;12.340;2022-09-09T05:21:10;6.57;;;3.10;;
23300;SDS011;11819;51.394;12.340;2022-09-09T05:23:36;6.35;;;2.97;;
23300;SDS011;11819;51.394;12.340;2022-09-09T05:26:02;7.03;;;3.03;;
23300;SDS011;11819;51.394;12.340;2022-09-09T05:28:29;4.10;;;2.72;;
23300;SDS011;11819;51.394;12.340;2022-09-09T05:30:59;5.15;;;3.30;;
23300;SDS011;11819;51.394;12.340;2022-09-09T05:33:30;7.80;;;3.20;;
23300;SDS011;11819;51.394;12.340;2022-09-09T05:36:01;7.82;;;3.22;;
23300;SDS011;11819;51.394;12.340;2022-09-09T05:38:29;5.38;;;2.97;;
23300;SDS011;11819;51.394;12.340;2022-09-09T05:40:56;7.93;;;4.05;;
23300;SDS011;11819;51.394;12.340;2022-09-09T05:43:22;5.60;;;3.10;;
23300;SDS011;11819;51.394;12.340;2022-09-09T05:45:58;7.43;;;3.38;;
23300;SDS011;11819;51.394;12.340;2022-09-09T05:48:27;7.85;;;3.33;;
23300;SDS011;11819;51.394;12.340;2022-09-09T05:50:54;5.57;;;3.15;;
23300;SDS011;11819;51.394;12.340;2022-09-09T05:53:20;8.43;;;3.20;;
23300;SDS011;11819;51.394;12.340;2022-09-09T05:55:46;6.90;;;3.70;;
23300;SDS011;11819;51.394;12.340;2022-09-09T05:58:13;7.13;;;3.47;;
23300;SDS011;11819;51.394;12.340;2022-09-09T06:00:40;7.13;;;3.47;;
23300;SDS011;11819;51.394;12.340;2022-09-09T06:03:06;7.38;;;3.10;;
23300;SDS011;11819;51.394;12.340;2022-09-09T06:05:34;5.68;;;3.20;;
23300;SDS011;11819;51.394;12.340;2022-09-09T06:08:00;9.63;;;3.42;;
23300;SDS011;11819;51.394;12.340;2022-09-09T06:10:26;6.05;;;2.58;;
23300;SDS011;11819;51.394;12.340;2022-09-09T06:12:52;5.82;;;3.00;;
23300;SDS011;11819;51.394;12.340;2022-09-09T06:15:17;6.55;;;3.28;;
23300;SDS011;11819;51.394;12.340;2022-09-09T06:17:43;7.38;;;2.85;;
23300;SDS011;11819;51.394;12.340;2022-09-09T06:20:11;7.40;;;3.10;;
23300;SDS011;11819;51.394;12.340;2022-09-09T06:22:39;6.10;;;2.55;;
23300;SDS011;11819;51.394;12.340;2022-09-09T06:25:06;7.80;;;2.95;;
23300;SDS011;11819;51.394;12.340;2022-09-09T06:27:33;7.10;;;3.00;;
23300;SDS011;11819;51.394;12.340;2022-09-09T06:29:59;5.50;;;2.90;;
23300;SDS011;11819;51.394;12.340;2022-09-09T06:32:24;4.68;;;2.78;;
23300;SDS011;11819;51.394;12.340;2022-09-09T06:34:53;6.20;;;2.90;;
23300;SDS011;11819;51.394;12.340;2022-09-09T06:37:19;5.25;;;2.65;;
23300;SDS011;11819;51.394;12.340;2022-09-09T06:39:47;5.28;;;2.70;;
23300;SDS011;11819;51.394;12.340;2022-09-09T06:42:13;5.78;;;2.85;;
23300;SDS011;11819;51.394;12.340;2022-09-09T06:44:56;4.55;;;2.80;;
23300;SDS011;11819;51.394;12.340;2022-09-09T06:47:43;6.28;;;2.92;;
23300;SDS011;11819;51.394;12.340;2022-09-09T06:50:08;7.82;;;2.90;;
23300;SDS011;11819;51.394;12.340;2022-09-09T06:52:36;10.27;;;3.78;;
23300;SDS011;11819;51.394;12.340;2022-09-09T06:55:03;6.68;;;2.78;;
23300;SDS011;11819;51.394;12.340;2022-09-09T06:57:30;5.80;;;3.08;;
23300;SDS011;11819;51.394;12.340;2022-09-09T06:59:56;5.78;;;2.95;;
23300;SDS011;11819;51.394;12.340;2022-09-09T07:02:21;8.00;;;3.65;;
23300;SDS011;11819;51.394;12.340;2022-09-09T07:04:47;6.80;;;2.90;;
23300;SDS011;11819;51.394;12.340;2022-09-09T07:07:16;6.10;;;2.97;;
23300;SDS011;11819;51.394;12.340;2022-09-09T07:09:43;6.32;;;3.10;;
23300;SDS011;11819;51.394;12.340;2022-09-09T07:12:10;8.25;;;3.20;;
23300;SDS011;11819;51.394;12.340;2022-09-09T07:14:43;7.28;;;2.85;;
23300;SDS011;11819;51.394;12.340;2022-09-09T07:17:09;7.68;;;3.20;;
23300;SDS011;11819;51.394;12.340;2022-09-09T07:19:37;7.45;;;2.50;;
23300;SDS011;11819;51.394;12.340;2022-09-09T07:22:04;5.75;;;2.72;;
23300;SDS011;11819;51.394;12.340;2022-09-09T07:24:31;4.38;;;2.58;;
23300;SDS011;11819;51.394;12.340;2022-09-09T07:26:57;4.57;;;2.42;;
23300;SDS011;11819;51.394;12.340;2022-09-09T07:29:23;4.75;;;2.72;;
23300;SDS011;11819;51.394;12.340;2022-09-09T07:31:49;5.05;;;2.55;;
23300;SDS011;11819;51.394;12.340;2022-09-09T07:34:21;6.78;;;2.80;;
23300;SDS011;11819;51.394;12.340;2022-09-09T07:36:46;4.95;;;2.53;;
23300;SDS011;11819;51.394;12.340;2022-09-09T07:39:16;3.85;;;2.53;;
23300;SDS011;11819;51.394;12.340;2022-09-09T07:41:48;4.03;;;2.13;;
23300;SDS011;11819;51.394;12.340;2022-09-09T07:44:18;5.15;;;2.60;;
23300;SDS011;11819;51.394;12.340;2022-09-09T07:46:49;3.80;;;2.08;;
23300;SDS011;11819;51.394;12.340;2022-09-09T07:49:19;5.22;;;2.58;;
23300;SDS011;11819;51.394;12.340;2022-09-09T07:51:46;4.47;;;2.30;;
23300;SDS011;11819;51.394;12.340;2022-09-09T07:54:14;6.72;;;2.60;;
23300;SDS011;11819;51.394;12.340;2022-09-09T07:56:46;4.60;;;2.30;;
23300;SDS011;11819;51.394;12.340;2022-09-09T07:59:12;5.40;;;2.83;;
23300;SDS011;11819;51.394;12.340;2022-09-09T08:01:41;4.82;;;2.25;;
23300;SDS011;11819;51.394;12.340;2022-09-09T08:04:10;4.88;;;2.30;;
23300;SDS011;11819;51.394;12.340;2022-09-09T08:06:43;5.00;;;2.30;;
23300;SDS011;11819;51.394;12.340;2022-09-09T08:09:11;6.38;;;2.20;;
23300;SDS011;11819;51.394;12.340;2022-09-09T08:11:38;6.50;;;2.72;;
23300;SDS011;11819;51.394;12.340;2022-09-09T08:14:05;3.78;;;2.08;;
23300;SDS011;11819;51.394;12.340;2022-09-09T08:16:34;5.93;;;2.20;;
23300;SDS011;11819;51.394;12.340;2022-09-09T08:19:02;5.32;;;2.17;;
23300;SDS011;11819;51.394;12.340;2022-09-09T08:21:29;4.13;;;2.10;;
23300;SDS011;11819;51.394;12.340;2022-09-09T08:23:58;6.10;;;2.47;;
23300;SDS011;11819;51.394;12.340;2022-09-09T08:26:25;4.97;;;2.50;;
23300;SDS011;11819;51.394;12.340;2022-09-09T08:28:57;4.78;;;1.90;;
23300;SDS011;11819;51.394;12.340;2022-09-09T08:31:26;3.47;;;1.92;;
23300;SDS011;11819;51.394;12.340;2022-09-09T08:33:53;3.15;;;2.00;;
23300;SDS011;11819;51.394;12.340;2022-09-09T08:36:21;7.03;;;3.45;;
23300;SDS011;11819;51.394;12.340;2022-09-09T08:38:54;7.30;;;2.65;;
23300;SDS011;11819;51.394;12.340;2022-09-09T08:52:37;5.13;;;2.10;;
23300;SDS011;11819;51.394;12.340;2022-09-09T08:55:28;6.22;;;2.25;;
23300;SDS011;11819;51.394;12.340;2022-09-09T08:58:06;6.82;;;2.25;;
23300;SDS011;11819;51.394;12.340;2022-09-09T09:00:51;4.43;;;2.00;;
23300;SDS011;11819;51.394;12.340;2022-09-09T09:03:54;6.75;;;2.08;;
23300;SDS011;11819;51.394;12.340;2022-09-09T09:09:16;5.60;;;2.30;;
23300;SDS011;11819;51.394;12.340;2022-09-09T09:11:59;4.85;;;1.90;;
23300;SDS011;11819;51.394;12.340;2022-09-09T09:14:33;4.30;;;2.08;;
23300;SDS011;11819;51.394;12.340;2022-09-09T09:17:05;4.15;;;2.10;;
23300;SDS011;11819;51.394;12.340;2022-09-09T09:19:35;4.57;;;1.90;;
23300;SDS011;11819;51.394;12.340;2022-09-09T09:22:14;5.85;;;1.85;;
23300;SDS011;11819;51.394;12.340;2022-09-09T09:27:58;6.68;;;2.30;;
23300;SDS011;11819;51.394;12.340;2022-09-09T09:36:07;3.88;;;1.88;;
23300;SDS011;11819;51.394;12.340;2022-09-09T09:38:35;4.82;;;1.83;;
23300;SDS011;11819;51.394;12.340;2022-09-09T09:41:01;4.05;;;1.80;;
23300;SDS011;11819;51.394;12.340;2022-09-09T09:43:30;5.78;;;1.75;;
23300;SDS011;11819;51.394;12.340;2022-09-09T09:45:59;4.43;;;2.13;;
23300;SDS011;11819;51.394;12.340;2022-09-09T09:48:26;4.32;;;1.90;;
23300;SDS011;11819;51.394;12.340;2022-09-09T09:50:54;5.45;;;1.80;;
23300;SDS011;11819;51.394;12.340;2022-09-09T09:53:27;3.60;;;1.77;;
23300;SDS011;11819;51.394;12.340;2022-09-09T09:55:59;5.90;;;1.80;;
23300;SDS011;11819;51.394;12.340;2022-09-09T09:58:30;4.55;;;2.00;;
23300;SDS011;11819;51.394;12.340;2022-09-09T10:00:59;6.30;;;1.95;;
23300;SDS011;11819;51.394;12.340;2022-09-09T10:03:28;3.83;;;1.88;;
23300;SDS011;11819;51.394;12.340;2022-09-09T10:05:57;5.15;;;2.10;;
23300;SDS011;11819;51.394;12.340;2022-09-09T10:08:23;5.45;;;1.90;;
23300;SDS011;11819;51.394;12.340;2022-09-09T10:13:45;6.93;;;1.90;;
23300;SDS011;11819;51.394;12.340;2022-09-09T10:22:02;5.88;;;2.10;;
23300;SDS011;11819;51.394;12.340;2022-09-09T10:32:49;2.90;;;1.60;;
23300;SDS011;11819;51.394;12.340;2022-09-09T10:40:59;5.45;;;2.40;;
23300;SDS011;11819;51.394;12.340;2022-09-09T10:49:02;4.20;;;2.00;;
23300;SDS011;11819;51.394;12.340;2022-09-09T10:54:59;3.85;;;1.85;;
23300;SDS011;11819;51.394;12.340;2022-09-09T10:57:27;4.47;;;1.85;;
23300;SDS011;11819;51.394;12.340;2022-09-09T11:00:01;6.43;;;2.00;;
23300;SDS011;11819;51.394;12.340;2022-09-09T11:02:30;4.45;;;2.20;;
23300;SDS011;11819;51.394;12.340;2022-09-09T11:05:02;4.60;;;2.10;;
23300;SDS011;11819;51.394;12.340;2022-09-09T11:07:45;4.35;;;2.10;;
23300;SDS011;11819;51.394;12.340;2022-09-09T11:10:29;2.33;;;2.03;;
23300;SDS011;11819;51.394;12.340;2022-09-09T11:13:20;2.75;;;1.80;;
23300;SDS011;11819;51.394;12.340;2022-09-09T11:16:04;3.00;;;1.60;;
23300;SDS011;11819;51.394;12.340;2022-09-09T11:18:30;5.85;;;2.00;;
23300;SDS011;11819;51.394;12.340;2022-09-09T11:21:01;3.88;;;2.10;;
23300;SDS011;11819;51.394;12.340;2022-09-09T11:26:31;4.90;;;2.13;;
23300;SDS011;11819;51.394;12.340;2022-09-09T11:31:57;4.95;;;2.20;;
23300;SDS011;11819;51.394;12.340;2022-09-09T11:35:02;3.80;;;2.10;;
23300;SDS011;11819;51.394;12.340;2022-09-09T11:37:43;3.40;;;1.90;;
23300;SDS011;11819;51.394;12.340;2022-09-09T11:40:22;4.00;;;2.13;;
23300;SDS011;11819;51.394;12.340;2022-09-09T11:42:59;5.55;;;2.30;;
23300;SDS011;11819;51.394;12.340;2022-09-09T11:45:31;5.45;;;2.10;;
23300;SDS011;11819;51.394;12.340;2022-09-09T11:47:59;6.90;;;2.70;;
23300;SDS011;11819;51.394;12.340;2022-09-09T11:53:06;4.20;;;2.00;;
23300;SDS011;11819;51.394;12.340;2022-09-09T11:55:48;2.28;;;1.80;;
23300;SDS011;11819;51.394;12.340;2022-09-09T11:58:36;2.75;;;2.05;;
23300;SDS011;11819;51.394;12.340;2022-09-09T12:12:05;5.82;;;2.28;;
23300;SDS011;11819;51.394;12.340;2022-09-09T12:19:40;5.15;;;2.05;;
23300;SDS011;11819;51.394;12.340;2022-09-09T12:22:23;4.40;;;1.85;;
23300;SDS011;11819;51.394;12.340;2022-09-09T12:25:03;5.63;;;2.10;;
23300;SDS011;11819;51.394;12.340;2022-09-09T12:27:45;3.47;;;2.10;;
23300;SDS011;11819;51.394;12.340;2022-09-09T12:30:31;6.15;;;2.00;;
23300;SDS011;11819;51.394;12.340;2022-09-09T12:33:10;4.53;;;1.90;;
23300;SDS011;11819;51.394;12.340;2022-09-09T12:35:40;5.57;;;1.90;;
23300;SDS011;11819;51.394;12.340;2022-09-09T12:38:12;6.03;;;2.42;;
23300;SDS011;11819;51.394;12.340;2022-09-09T12:40:53;5.20;;;2.40;;
23300;SDS011;11819;51.394;12.340;2022-09-09T12:43:21;6.25;;;2.20;;
23300;SDS011;11819;51.394;12.340;2022-09-09T12:45:53;5.88;;;2.00;;
23300;SDS011;11819;51.394;12.340;2022-09-09T12:48:44;3.42;;;1.80;;
23300;SDS011;11819;51.394;12.340;2022-09-09T12:51:27;6.65;;;2.50;;
23300;SDS011;11819;51.394;12.340;2022-09-09T12:53:55;3.08;;;1.80;;
23300;SDS011;11819;51.394;12.340;2022-09-09T12:56:22;3.83;;;1.90;;
23300;SDS011;11819;51.394;12.340;2022-09-09T12:58:52;5.28;;;1.60;;
23300;SDS011;11819;51.394;12.340;2022-09-09T13:01:30;4.30;;;1.80;;
23300;SDS011;11819;51.394;12.340;2022-09-09T13:03:57;3.97;;;1.70;;
23300;SDS011;11819;51.394;12.340;2022-09-09T13:06:27;1.75;;;1.50;;
23300;SDS011;11819;51.394;12.340;2022-09-09T13:08:55;5.43;;;1.88;;
23300;SDS011;11819;51.394;12.340;2022-09-09T13:14:03;3.58;;;1.52;;
23300;SDS011;11819;51.394;12.340;2022-09-09T13:16:30;5.32;;;1.70;;
23300;SDS011;11819;51.394;12.340;2022-09-09T13:18:58;4.28;;;1.70;;
23300;SDS011;11819;51.394;12.340;2022-09-09T13:21:33;4.63;;;1.90;;
23300;SDS011;11819;51.394;12.340;2022-09-09T13:24:00;3.08;;;1.55;;
23300;SDS011;11819;51.394;12.340;2022-09-09T13:26:28;2.95;;;1.48;;
23300;SDS011;11819;51.394;12.340;2022-09-09T13:28:55;4.63;;;1.77;;
23300;SDS011;11819;51.394;12.340;2022-09-09T13:31:39;3.28;;;1.42;;
23300;SDS011;11819;51.394;12.340;2022-09-09T13:34:12;4.75;;;1.73;;
23300;SDS011;11819;51.394;12.340;2022-09-09T13:36:39;2.60;;;1.35;;
23300;SDS011;11819;51.394;12.340;2022-09-09T13:39:14;2.97;;;1.50;;
23300;SDS011;11819;51.394;12.340;2022-09-09T13:41:43;3.30;;;1.60;;
23300;SDS011;11819;51.394;12.340;2022-09-09T13:44:28;4.05;;;1.77;;
23300;SDS011;11819;51.394;12.340;2022-09-09T13:47:00;3.40;;;1.73;;
23300;SDS011;11819;51.394;12.340;2022-09-09T13:49:41;2.40;;;1.60;;
23300;SDS011;11819;51.394;12.340;2022-09-09T13:52:10;4.65;;;1.80;;
23300;SDS011;11819;51.394;12.340;2022-09-09T13:54:38;3.63;;;1.73;;
23300;SDS011;11819;51.394;12.340;2022-09-09T13:57:04;2.53;;;1.58;;
23300;SDS011;11819;51.394;12.340;2022-09-09T13:59:30;3.55;;;1.60;;
23300;SDS011;11819;51.394;12.340;2022-09-09T14:01:56;3.30;;;1.90;;
23300;SDS011;11819;51.394;12.340;2022-09-09T14:04:23;4.43;;;1.70;;
23300;SDS011;11819;51.394;12.340;2022-09-09T14:06:49;2.45;;;1.55;;
23300;SDS011;11819;51.394;12.340;2022-09-09T14:09:15;2.47;;;1.42;;
23300;SDS011;11819;51.394;12.340;2022-09-09T14:11:42;4.13;;;1.63;;
23300;SDS011;11819;51.394;12.340;2022-09-09T14:14:10;4.00;;;1.70;;
23300;SDS011;11819;51.394;12.340;2022-09-09T14:16:36;2.88;;;1.40;;
23300;SDS011;11819;51.394;12.340;2022-09-09T14:19:02;1.90;;;1.00;;
23300;SDS011;11819;51.394;12.340;2022-09-09T14:21:28;3.30;;;1.23;;
23300;SDS011;11819;51.394;12.340;2022-09-09T14:23:54;1.63;;;1.00;;
23300;SDS011;11819;51.394;12.340;2022-09-09T14:26:20;2.85;;;1.02;;
23300;SDS011;11819;51.394;12.340;2022-09-09T14:28:47;3.20;;;1.15;;
23300;SDS011;11819;51.394;12.340;2022-09-09T14:31:13;2.33;;;1.10;;
23300;SDS011;11819;51.394;12.340;2022-09-09T14:33:39;3.22;;;1.13;;
23300;SDS011;11819;51.394;12.340;2022-09-09T14:36:05;2.28;;;0.90;;
23300;SDS011;11819;51.394;12.340;2022-09-09T14:38:32;3.50;;;1.20;;
23300;SDS011;11819;51.394;12.340;2022-09-09T14:41:04;3.38;;;1.42;;
23300;SDS011;11819;51.394;12.340;2022-09-09T14:43:29;2.88;;;1.05;;
23300;SDS011;11819;51.394;12.340;2022-09-09T14:45:57;4.55;;;1.40;;
23300;SDS011;11819;51.394;12.340;2022-09-09T14:48:30;5.00;;;1.30;;
23300;SDS011;11819;51.394;12.340;2022-09-09T14:50:56;3.00;;;1.15;;
23300;SDS011;11819;51.394;12.340;2022-09-09T14:53:21;6.35;;;1.33;;
23300;SDS011;11819;51.394;12.340;2022-09-09T14:55:47;4.75;;;1.20;;
23300;SDS011;11819;51.394;12.340;2022-09-09T14:58:13;4.97;;;1.35;;
23300;SDS011;11819;51.394;12.340;2022-09-09T15:00:38;6.85;;;1.52;;
23300;SDS011;11819;51.394;12.340;2022-09-09T15:03:04;2.15;;;1.02;;
23300;SDS011;11819;51.394;12.340;2022-09-09T15:05:30;2.33;;;1.27;;
23300;SDS011;11819;51.394;12.340;2022-09-09T15:07:56;3.38;;;1.38;;
23300;SDS011;11819;51.394;12.340;2022-09-09T15:10:23;2.10;;;1.20;;
23300;SDS011;11819;51.394;12.340;2022-09-09T15:12:49;4.78;;;1.42;;
23300;SDS011;11819;51.394;12.340;2022-09-09T15:15:14;4.25;;;1.73;;
23300;SDS011;11819;51.394;12.340;2022-09-09T15:17:40;3.83;;;1.58;;
23300;SDS011;11819;51.394;12.340;2022-09-09T15:20:06;3.25;;;1.40;;
23300;SDS011;11819;51.394;12.340;2022-09-09T15:22:32;2.50;;;1.15;;
23300;SDS011;11819;51.394;12.340;2022-09-09T15:24:58;3.70;;;1.55;;
23300;SDS011;11819;51.394;12.340;2022-09-09T15:27:24;3.92;;;1.23;;
23300;SDS011;11819;51.394;12.340;2022-09-09T15:29:50;5.03;;;1.52;;
23300;SDS011;11819;51.394;12.340;2022-09-09T15:32:16;4.55;;;1.55;;
23300;SDS011;11819;51.394;12.340;2022-09-09T15:34:42;2.83;;;1.50;;
23300;SDS011;11819;51.394;12.340;2022-09-09T15:37:09;3.42;;;1.50;;
23300;SDS011;11819;51.394;12.340;2022-09-09T15:39:38;2.95;;;1.30;;
23300;SDS011;11819;51.394;12.340;2022-09-09T15:42:04;3.25;;;1.60;;
23300;SDS011;11819;51.394;12.340;2022-09-09T15:44:29;3.63;;;1.35;;
23300;SDS011;11819;51.394;12.340;2022-09-09T15:47:02;3.88;;;1.30;;
23300;SDS011;11819;51.394;12.340;2022-09-09T15:49:28;3.15;;;1.52;;
23300;SDS011;11819;51.394;12.340;2022-09-09T15:51:55;2.95;;;1.20;;
23300;SDS011;11819;51.394;12.340;2022-09-09T15:54:23;5.35;;;1.30;;
23300;SDS011;11819;51.394;12.340;2022-09-09T15:56:53;3.00;;;1.63;;
23300;SDS011;11819;51.394;12.340;2022-09-09T15:59:21;4.68;;;2.13;;
23300;SDS011;11819;51.394;12.340;2022-09-09T16:01:50;3.92;;;2.08;;
23300;SDS011;11819;51.394;12.340;2022-09-09T16:04:17;4.95;;;1.42;;
23300;SDS011;11819;51.394;12.340;2022-09-09T16:06:48;3.10;;;1.50;;
23300;SDS011;11819;51.394;12.340;2022-09-09T16:09:19;3.55;;;1.40;;
23300;SDS011;11819;51.394;12.340;2022-09-09T16:11:46;5.55;;;1.80;;
23300;SDS011;11819;51.394;12.340;2022-09-09T16:14:12;2.53;;;1.20;;
23300;SDS011;11819;51.394;12.340;2022-09-09T16:16:40;1.85;;;0.93;;
23300;SDS011;11819;51.394;12.340;2022-09-09T16:19:07;2.63;;;1.27;;
23300;SDS011;11819;51.394;12.340;2022-09-09T16:21:38;2.80;;;1.35;;
23300;SDS011;11819;51.394;12.340;2022-09-09T16:24:07;4.18;;;1.50;;
23300;SDS011;11819;51.394;12.340;2022-09-09T16:26:35;2.90;;;1.80;;
23300;SDS011;11819;51.394;12.340;2022-09-09T16:29:02;3.38;;;1.30;;
23300;SDS011;11819;51.394;12.340;2022-09-09T16:31:28;2.97;;;1.25;;
23300;SDS011;11819;51.394;12.340;2022-09-09T16:33:54;3.15;;;1.23;;
23300;SDS011;11819;51.394;12.340;2022-09-09T16:36:22;3.88;;;1.40;;
23300;SDS011;11819;51.394;12.340;2022-09-09T16:38:52;2.42;;;1.50;;
23300;SDS011;11819;51.394;12.340;2022-09-09T16:41:22;3.47;;;1.40;;
23300;SDS011;11819;51.394;12.340;2022-09-09T16:43:53;3.58;;;1.60;;
23300;SDS011;11819;51.394;12.340;2022-09-09T16:46:20;3.72;;;1.90;;
23300;SDS011;11819;51.394;12.340;2022-09-09T16:48:47;2.63;;;1.30;;
23300;SDS011;11819;51.394;12.340;2022-09-09T16:51:15;4.30;;;1.50;;
23300;SDS011;11819;51.394;12.340;2022-09-09T16:53:48;2.85;;;1.42;;
23300;SDS011;11819;51.394;12.340;2022-09-09T16:56:15;2.60;;;1.60;;